Terminal Aerodrome Forecast
Issued by NWS Tulsa, OK

Home | Current Version | Previous Version | Text Only | Print | Product List | Glossary On
Versions: 1 2 3 4 5 6 7 8 9 10 11 12 13 14 15 16 17
000
FTUS44 KTSA 181100
TAFTUL
TAF
KTUL 181120Z 1812/1912 13006KT 5SM -DZ BR OVC005
     FM181600 14004KT 4SM BR OVC007
     FM182100 02005KT 5SM BR OVC012
     FM190100 02003KT 4SM BR OVC007=

USA.gov is the U.S. government's official web portal to all federal, state and local government web resources and services.